Greenwood, Minnesota
Current Conditions -  °F | °C
As of 12:35 PM on Thursday 29 Jan 2015 (Local Time) from KFSE Reporting Station
Broken Clouds Broken Clouds  
Wind Chill: -7°   Ceiling: 1800
Heat Index: 10°   Visibility: 10mi
Dew Point:   Wind: 17mph
Humidity: 85%   Direction: 300°WNW
Pressure: 30.43"   Gusts: 25mph
Location:  47.7926°N, 95.3062°W
Report Text: KFSE 291835Z AUTO 30015G22KT 10SM BKN018 M12/M14 A3043 RMK AO2
Loading
Personal Weather Stations






























Interactive Weather Map New forecast layout! Learn more

10-Day Weather Forecast

Advertisements
Track Severe Weather on mobile